sensor_id;sensor_type;location;lat;lon;timestamp;temperature;humidity
40960;DHT22;27842;52.272;8.052;2022-12-18T00:01:22;-4.60;99.90
40960;DHT22;27842;52.272;8.052;2022-12-18T00:03:48;-4.60;99.90
40960;DHT22;27842;52.272;8.052;2022-12-18T00:06:14;-4.50;99.90
40960;DHT22;27842;52.272;8.052;2022-12-18T00:08:44;-4.50;99.90
40960;DHT22;27842;52.272;8.052;2022-12-18T00:11:15;-4.50;99.90
40960;DHT22;27842;52.272;8.052;2022-12-18T00:13:41;-4.50;99.90
40960;DHT22;27842;52.272;8.052;2022-12-18T00:16:09;-4.50;99.90
40960;DHT22;27842;52.272;8.052;2022-12-18T00:18:38;-4.50;99.90
40960;DHT22;27842;52.272;8.052;2022-12-18T00:21:06;-4.50;99.90
40960;DHT22;27842;52.272;8.052;2022-12-18T00:23:36;-4.50;99.90
40960;DHT22;27842;52.272;8.052;2022-12-18T00:26:14;-4.50;99.90
40960;DHT22;27842;52.272;8.052;2022-12-18T00:28:44;-4.50;99.90
40960;DHT22;27842;52.272;8.052;2022-12-18T00:31:16;-4.50;99.90
40960;DHT22;27842;52.272;8.052;2022-12-18T00:33:43;-4.50;99.90
40960;DHT22;27842;52.272;8.052;2022-12-18T00:36:17;-4.50;99.90
40960;DHT22;27842;52.272;8.052;2022-12-18T00:38:44;-4.50;99.90
40960;DHT22;27842;52.272;8.052;2022-12-18T00:41:15;-4.50;99.90
40960;DHT22;27842;52.272;8.052;2022-12-18T00:44:04;-4.50;99.90
40960;DHT22;27842;52.272;8.052;2022-12-18T00:46:31;-4.60;99.90
40960;DHT22;27842;52.272;8.052;2022-12-18T00:48:57;-4.60;99.90
40960;DHT22;27842;52.272;8.052;2022-12-18T00:51:23;-4.60;99.90
40960;DHT22;27842;52.272;8.052;2022-12-18T00:53:48;-4.60;99.90
40960;DHT22;27842;52.272;8.052;2022-12-18T00:56:14;-4.60;99.90
40960;DHT22;27842;52.272;8.052;2022-12-18T00:58:40;-4.60;99.90
40960;DHT22;27842;52.272;8.052;2022-12-18T01:01:06;-4.60;99.90
40960;DHT22;27842;52.272;8.052;2022-12-18T01:03:31;-4.60;99.90
40960;DHT22;27842;52.272;8.052;2022-12-18T01:05:57;-4.60;99.90
40960;DHT22;27842;52.272;8.052;2022-12-18T01:08:23;-4.60;99.90
40960;DHT22;27842;52.272;8.052;2022-12-18T01:10:53;-4.60;99.90
40960;DHT22;27842;52.272;8.052;2022-12-18T01:13:19;-4.70;99.90
40960;DHT22;27842;52.272;8.052;2022-12-18T01:15:51;-4.60;99.90
40960;DHT22;27842;52.272;8.052;2022-12-18T01:18:17;-4.60;99.90
40960;DHT22;27842;52.272;8.052;2022-12-18T01:20:42;-4.70;99.90
40960;DHT22;27842;52.272;8.052;2022-12-18T01:23:08;-4.70;99.90
40960;DHT22;27842;52.272;8.052;2022-12-18T01:25:36;-4.70;99.90
40960;DHT22;27842;52.272;8.052;2022-12-18T01:28:02;-4.70;99.90
40960;DHT22;27842;52.272;8.052;2022-12-18T01:30:27;-4.70;99.90
40960;DHT22;27842;52.272;8.052;2022-12-18T01:32:53;-4.70;99.90
40960;DHT22;27842;52.272;8.052;2022-12-18T01:35:22;-4.70;99.90
40960;DHT22;27842;52.272;8.052;2022-12-18T01:37:47;-4.70;99.90
40960;DHT22;27842;52.272;8.052;2022-12-18T01:40:16;-4.60;99.90
40960;DHT22;27842;52.272;8.052;2022-12-18T01:42:41;-4.70;99.90
40960;DHT22;27842;52.272;8.052;2022-12-18T01:47:54;-4.60;99.90
40960;DHT22;27842;52.272;8.052;2022-12-18T01:50:36;-4.70;99.90
40960;DHT22;27842;52.272;8.052;2022-12-18T01:53:15;-4.70;99.90
40960;DHT22;27842;52.272;8.052;2022-12-18T01:55:50;-4.70;99.90
40960;DHT22;27842;52.272;8.052;2022-12-18T01:58:17;-4.80;99.90
40960;DHT22;27842;52.272;8.052;2022-12-18T02:00:43;-4.80;99.90
40960;DHT22;27842;52.272;8.052;2022-12-18T02:03:08;-4.80;99.90
40960;DHT22;27842;52.272;8.052;2022-12-18T02:05:46;-4.90;99.90
40960;DHT22;27842;52.272;8.052;2022-12-18T02:09:02;-4.90;99.90
40960;DHT22;27842;52.272;8.052;2022-12-18T02:16:40;-4.90;99.90
40960;DHT22;27842;52.272;8.052;2022-12-18T02:27:50;-4.80;99.90
40960;DHT22;27842;52.272;8.052;2022-12-18T02:30:17;-4.80;99.90
40960;DHT22;27842;52.272;8.052;2022-12-18T02:32:49;-4.90;99.90
40960;DHT22;27842;52.272;8.052;2022-12-18T02:35:27;-4.90;99.90
40960;DHT22;27842;52.272;8.052;2022-12-18T02:37:54;-4.80;99.90
40960;DHT22;27842;52.272;8.052;2022-12-18T02:40:24;-4.90;99.90
40960;DHT22;27842;52.272;8.052;2022-12-18T02:42:51;-4.90;99.90
40960;DHT22;27842;52.272;8.052;2022-12-18T02:45:17;-4.90;99.90
40960;DHT22;27842;52.272;8.052;2022-12-18T02:47:48;-4.80;99.90
40960;DHT22;27842;52.272;8.052;2022-12-18T02:53:06;-4.90;99.90
40960;DHT22;27842;52.272;8.052;2022-12-18T02:55:59;-4.90;99.90
40960;DHT22;27842;52.272;8.052;2022-12-18T02:59:13;-4.90;99.90
40960;DHT22;27842;52.272;8.052;2022-12-18T03:04:25;-4.90;99.90
40960;DHT22;27842;52.272;8.052;2022-12-18T03:06:55;-4.90;99.90
40960;DHT22;27842;52.272;8.052;2022-12-18T03:09:26;-4.90;99.90
40960;DHT22;27842;52.272;8.052;2022-12-18T03:11:56;-5.00;99.90
40960;DHT22;27842;52.272;8.052;2022-12-18T03:14:43;-5.00;99.90
40960;DHT22;27842;52.272;8.052;2022-12-18T03:17:13;-4.90;99.90
40960;DHT22;27842;52.272;8.052;2022-12-18T03:19:46;-5.00;99.90
40960;DHT22;27842;52.272;8.052;2022-12-18T03:22:13;-5.00;99.90
40960;DHT22;27842;52.272;8.052;2022-12-18T03:24:44;-5.00;99.90
40960;DHT22;27842;52.272;8.052;2022-12-18T03:27:17;-5.10;99.90
40960;DHT22;27842;52.272;8.052;2022-12-18T03:29:54;-5.10;99.90
40960;DHT22;27842;52.272;8.052;2022-12-18T03:32:29;-5.10;99.90
40960;DHT22;27842;52.272;8.052;2022-12-18T03:35:00;-5.10;99.90
40960;DHT22;27842;52.272;8.052;2022-12-18T03:37:31;-5.00;99.90
40960;DHT22;27842;52.272;8.052;2022-12-18T03:39:57;-5.00;99.90
40960;DHT22;27842;52.272;8.052;2022-12-18T03:51:05;-5.10;99.90
40960;DHT22;27842;52.272;8.052;2022-12-18T03:53:49;-5.10;99.90
40960;DHT22;27842;52.272;8.052;2022-12-18T03:56:18;-5.20;99.90
40960;DHT22;27842;52.272;8.052;2022-12-18T03:58:46;-5.20;99.90
40960;DHT22;27842;52.272;8.052;2022-12-18T04:01:15;-5.20;99.90
40960;DHT22;27842;52.272;8.052;2022-12-18T04:03:46;-5.20;99.90
40960;DHT22;27842;52.272;8.052;2022-12-18T04:06:14;-5.20;99.90
40960;DHT22;27842;52.272;8.052;2022-12-18T04:08:41;-5.20;99.90
40960;DHT22;27842;52.272;8.052;2022-12-18T04:11:07;-5.20;99.90
40960;DHT22;27842;52.272;8.052;2022-12-18T04:13:35;-5.20;99.90
40960;DHT22;27842;52.272;8.052;2022-12-18T04:16:01;-5.20;99.90
40960;DHT22;27842;52.272;8.052;2022-12-18T04:18:27;-5.20;99.90
40960;DHT22;27842;52.272;8.052;2022-12-18T04:20:55;-5.20;99.90
40960;DHT22;27842;52.272;8.052;2022-12-18T04:23:24;-5.20;99.90
40960;DHT22;27842;52.272;8.052;2022-12-18T04:25:52;-5.30;99.90
40960;DHT22;27842;52.272;8.052;2022-12-18T04:28:18;-5.30;99.90
40960;DHT22;27842;52.272;8.052;2022-12-18T04:30:43;-5.20;99.90
40960;DHT22;27842;52.272;8.052;2022-12-18T04:33:13;-5.20;99.90
40960;DHT22;27842;52.272;8.052;2022-12-18T04:35:41;-5.20;99.90
40960;DHT22;27842;52.272;8.052;2022-12-18T04:38:07;-5.30;99.90
40960;DHT22;27842;52.272;8.052;2022-12-18T04:40:37;-5.30;99.90
40960;DHT22;27842;52.272;8.052;2022-12-18T04:43:03;-5.30;99.90
40960;DHT22;27842;52.272;8.052;2022-12-18T04:45:32;-5.30;99.90
40960;DHT22;27842;52.272;8.052;2022-12-18T04:47:58;-5.30;99.90
40960;DHT22;27842;52.272;8.052;2022-12-18T04:50:24;-5.30;99.90
40960;DHT22;27842;52.272;8.052;2022-12-18T04:52:50;-5.30;99.90
40960;DHT22;27842;52.272;8.052;2022-12-18T04:55:15;-5.30;99.90
40960;DHT22;27842;52.272;8.052;2022-12-18T04:57:41;-5.30;99.90
40960;DHT22;27842;52.272;8.052;2022-12-18T05:00:07;-5.30;99.90
40960;DHT22;27842;52.272;8.052;2022-12-18T05:02:33;-5.40;99.90
40960;DHT22;27842;52.272;8.052;2022-12-18T05:04:59;-5.30;99.90
40960;DHT22;27842;52.272;8.052;2022-12-18T05:07:25;-5.30;99.90
40960;DHT22;27842;52.272;8.052;2022-12-18T05:09:53;-5.40;99.90
40960;DHT22;27842;52.272;8.052;2022-12-18T05:12:22;-5.40;99.90
40960;DHT22;27842;52.272;8.052;2022-12-18T05:14:48;-5.40;99.90
40960;DHT22;27842;52.272;8.052;2022-12-18T05:17:15;-5.40;99.90
40960;DHT22;27842;52.272;8.052;2022-12-18T05:19:43;-5.40;99.90
40960;DHT22;27842;52.272;8.052;2022-12-18T05:22:09;-5.40;99.90
40960;DHT22;27842;52.272;8.052;2022-12-18T05:24:35;-5.40;99.90
40960;DHT22;27842;52.272;8.052;2022-12-18T05:27:06;-5.50;99.90
40960;DHT22;27842;52.272;8.052;2022-12-18T05:29:31;-5.50;99.90
40960;DHT22;27842;52.272;8.052;2022-12-18T05:31:57;-5.50;99.90
40960;DHT22;27842;52.272;8.052;2022-12-18T05:34:23;-5.50;99.90
40960;DHT22;27842;52.272;8.052;2022-12-18T05:36:48;-5.50;99.90
40960;DHT22;27842;52.272;8.052;2022-12-18T05:39:19;-5.50;99.90
40960;DHT22;27842;52.272;8.052;2022-12-18T05:41:45;-5.50;99.90
40960;DHT22;27842;52.272;8.052;2022-12-18T05:44:10;-5.50;99.90
40960;DHT22;27842;52.272;8.052;2022-12-18T05:46:36;-5.50;99.90
40960;DHT22;27842;52.272;8.052;2022-12-18T05:49:05;-5.50;99.90
40960;DHT22;27842;52.272;8.052;2022-12-18T05:51:33;-5.50;99.90
40960;DHT22;27842;52.272;8.052;2022-12-18T05:53:59;-5.50;99.90
40960;DHT22;27842;52.272;8.052;2022-12-18T05:56:24;-5.50;99.90
40960;DHT22;27842;52.272;8.052;2022-12-18T05:58:53;-5.50;99.90
40960;DHT22;27842;52.272;8.052;2022-12-18T06:01:22;-5.50;99.90
40960;DHT22;27842;52.272;8.052;2022-12-18T06:03:51;-5.50;99.90
40960;DHT22;27842;52.272;8.052;2022-12-18T06:06:21;-5.50;99.90
40960;DHT22;27842;52.272;8.052;2022-12-18T06:08:48;-5.50;99.90
40960;DHT22;27842;52.272;8.052;2022-12-18T06:11:17;-5.50;99.90
40960;DHT22;27842;52.272;8.052;2022-12-18T06:13:43;-5.40;99.90
40960;DHT22;27842;52.272;8.052;2022-12-18T06:16:08;-5.40;99.90
40960;DHT22;27842;52.272;8.052;2022-12-18T06:18:34;-5.40;99.90
40960;DHT22;27842;52.272;8.052;2022-12-18T06:21:00;-5.50;99.90
40960;DHT22;27842;52.272;8.052;2022-12-18T06:23:26;-5.50;99.90
40960;DHT22;27842;52.272;8.052;2022-12-18T06:25:52;-5.50;99.90
40960;DHT22;27842;52.272;8.052;2022-12-18T06:28:18;-5.40;99.90
40960;DHT22;27842;52.272;8.052;2022-12-18T06:30:47;-5.40;99.90
40960;DHT22;27842;52.272;8.052;2022-12-18T06:33:13;-5.40;99.90
40960;DHT22;27842;52.272;8.052;2022-12-18T06:35:39;-5.40;99.90
40960;DHT22;27842;52.272;8.052;2022-12-18T06:38:05;-5.40;99.90
40960;DHT22;27842;52.272;8.052;2022-12-18T06:40:31;-5.40;99.90
40960;DHT22;27842;52.272;8.052;2022-12-18T06:42:59;-5.40;99.90
40960;DHT22;27842;52.272;8.052;2022-12-18T06:45:25;-5.40;99.90
40960;DHT22;27842;52.272;8.052;2022-12-18T06:47:53;-5.40;99.90
40960;DHT22;27842;52.272;8.052;2022-12-18T06:50:19;-5.40;99.90
40960;DHT22;27842;52.272;8.052;2022-12-18T06:52:47;-5.40;99.90
40960;DHT22;27842;52.272;8.052;2022-12-18T06:55:13;-5.40;99.90
40960;DHT22;27842;52.272;8.052;2022-12-18T06:57:38;-5.40;99.90
40960;DHT22;27842;52.272;8.052;2022-12-18T07:00:06;-5.40;99.90
40960;DHT22;27842;52.272;8.052;2022-12-18T07:02:32;-5.40;99.90
40960;DHT22;27842;52.272;8.052;2022-12-18T07:05:01;-5.50;99.90
40960;DHT22;27842;52.272;8.052;2022-12-18T07:07:27;-5.50;99.90
40960;DHT22;27842;52.272;8.052;2022-12-18T07:09:52;-5.50;99.90
40960;DHT22;27842;52.272;8.052;2022-12-18T07:12:18;-5.50;99.90
40960;DHT22;27842;52.272;8.052;2022-12-18T07:14:47;-5.50;99.90
40960;DHT22;27842;52.272;8.052;2022-12-18T07:17:13;-5.50;99.90
40960;DHT22;27842;52.272;8.052;2022-12-18T07:19:38;-5.50;99.90
40960;DHT22;27842;52.272;8.052;2022-12-18T07:22:06;-5.50;99.90
40960;DHT22;27842;52.272;8.052;2022-12-18T07:24:35;-5.50;99.90
40960;DHT22;27842;52.272;8.052;2022-12-18T07:27:04;-5.50;99.90
40960;DHT22;27842;52.272;8.052;2022-12-18T07:29:29;-5.50;99.90
40960;DHT22;27842;52.272;8.052;2022-12-18T07:31:58;-5.50;99.90
40960;DHT22;27842;52.272;8.052;2022-12-18T07:34:24;-5.60;99.90
40960;DHT22;27842;52.272;8.052;2022-12-18T07:36:52;-5.60;99.90
40960;DHT22;27842;52.272;8.052;2022-12-18T07:39:18;-5.50;99.90
40960;DHT22;27842;52.272;8.052;2022-12-18T07:41:44;-5.60;99.90
40960;DHT22;27842;52.272;8.052;2022-12-18T07:44:32;-5.60;99.90
40960;DHT22;27842;52.272;8.052;2022-12-18T07:46:58;-5.60;99.90
40960;DHT22;27842;52.272;8.052;2022-12-18T07:49:29;-5.50;99.90
40960;DHT22;27842;52.272;8.052;2022-12-18T07:51:55;-5.50;99.90
40960;DHT22;27842;52.272;8.052;2022-12-18T07:54:24;-5.50;99.90
40960;DHT22;27842;52.272;8.052;2022-12-18T07:56:53;-5.60;99.90
40960;DHT22;27842;52.272;8.052;2022-12-18T07:59:21;-5.50;99.90
40960;DHT22;27842;52.272;8.052;2022-12-18T08:01:47;-5.60;99.90
40960;DHT22;27842;52.272;8.052;2022-12-18T08:04:15;-5.60;99.90
40960;DHT22;27842;52.272;8.052;2022-12-18T08:06:41;-5.60;99.90
40960;DHT22;27842;52.272;8.052;2022-12-18T08:09:06;-5.60;99.90
40960;DHT22;27842;52.272;8.052;2022-12-18T08:11:39;-5.60;99.90
40960;DHT22;27842;52.272;8.052;2022-12-18T08:14:05;-5.60;99.90
40960;DHT22;27842;52.272;8.052;2022-12-18T08:16:30;-5.60;99.90
40960;DHT22;27842;52.272;8.052;2022-12-18T08:18:56;-5.60;99.90
40960;DHT22;27842;52.272;8.052;2022-12-18T08:21:27;-5.60;99.90
40960;DHT22;27842;52.272;8.052;2022-12-18T08:23:55;-5.60;99.90
40960;DHT22;27842;52.272;8.052;2022-12-18T08:26:22;-5.60;99.90
40960;DHT22;27842;52.272;8.052;2022-12-18T08:28:49;-5.60;99.90
40960;DHT22;27842;52.272;8.052;2022-12-18T08:31:14;-5.50;99.90
40960;DHT22;27842;52.272;8.052;2022-12-18T08:33:41;-5.50;99.90
40960;DHT22;27842;52.272;8.052;2022-12-18T08:36:07;-5.50;99.90
40960;DHT22;27842;52.272;8.052;2022-12-18T08:38:33;-5.50;99.90
40960;DHT22;27842;52.272;8.052;2022-12-18T08:41:05;-5.40;99.90
40960;DHT22;27842;52.272;8.052;2022-12-18T08:43:35;-5.40;99.90
40960;DHT22;27842;52.272;8.052;2022-12-18T08:46:20;-5.40;99.90
40960;DHT22;27842;52.272;8.052;2022-12-18T08:48:47;-5.30;99.90
40960;DHT22;27842;52.272;8.052;2022-12-18T08:51:18;-5.30;99.90
40960;DHT22;27842;52.272;8.052;2022-12-18T08:53:44;-5.30;99.90
40960;DHT22;27842;52.272;8.052;2022-12-18T08:56:10;-5.30;99.90
40960;DHT22;27842;52.272;8.052;2022-12-18T08:58:39;-5.30;99.90
40960;DHT22;27842;52.272;8.052;2022-12-18T09:01:11;-5.20;99.90
40960;DHT22;27842;52.272;8.052;2022-12-18T09:03:38;-5.20;99.90
40960;DHT22;27842;52.272;8.052;2022-12-18T09:06:04;-5.10;99.90
40960;DHT22;27842;52.272;8.052;2022-12-18T09:08:33;-5.10;99.90
40960;DHT22;27842;52.272;8.052;2022-12-18T09:11:01;-5.10;99.90
40960;DHT22;27842;52.272;8.052;2022-12-18T09:13:30;-5.10;99.90
40960;DHT22;27842;52.272;8.052;2022-12-18T09:15:55;-5.00;99.90
40960;DHT22;27842;52.272;8.052;2022-12-18T09:18:23;-5.00;99.90
40960;DHT22;27842;52.272;8.052;2022-12-18T09:20:49;-5.00;99.90
40960;DHT22;27842;52.272;8.052;2022-12-18T09:23:19;-4.90;99.90
40960;DHT22;27842;52.272;8.052;2022-12-18T09:25:45;-4.90;99.90
40960;DHT22;27842;52.272;8.052;2022-12-18T09:28:13;-4.90;99.90
40960;DHT22;27842;52.272;8.052;2022-12-18T09:30:44;-4.80;99.90
40960;DHT22;27842;52.272;8.052;2022-12-18T09:33:10;-4.80;99.90
40960;DHT22;27842;52.272;8.052;2022-12-18T09:35:43;-4.80;99.90
40960;DHT22;27842;52.272;8.052;2022-12-18T09:38:18;-4.70;99.90
40960;DHT22;27842;52.272;8.052;2022-12-18T09:40:52;-4.70;99.90
40960;DHT22;27842;52.272;8.052;2022-12-18T09:43:22;-4.60;99.90
40960;DHT22;27842;52.272;8.052;2022-12-18T09:45:53;-4.60;99.90
40960;DHT22;27842;52.272;8.052;2022-12-18T09:48:24;-4.50;99.90
40960;DHT22;27842;52.272;8.052;2022-12-18T09:51:19;-4.50;99.90
40960;DHT22;27842;52.272;8.052;2022-12-18T09:53:51;-4.40;99.90
40960;DHT22;27842;52.272;8.052;2022-12-18T09:56:19;-4.30;99.90
40960;DHT22;27842;52.272;8.052;2022-12-18T09:59:01;-4.30;99.90
40960;DHT22;27842;52.272;8.052;2022-12-18T10:01:28;-4.20;99.90
40960;DHT22;27842;52.272;8.052;2022-12-18T10:03:53;-4.20;99.90
40960;DHT22;27842;52.272;8.052;2022-12-18T10:17:22;-4.00;99.90
40960;DHT22;27842;52.272;8.052;2022-12-18T10:20:13;-4.00;99.90
40960;DHT22;27842;52.272;8.052;2022-12-18T10:22:57;-4.00;99.90
40960;DHT22;27842;52.272;8.052;2022-12-18T10:28:10;-3.90;99.90
40960;DHT22;27842;52.272;8.052;2022-12-18T10:30:38;-3.90;99.90
40960;DHT22;27842;52.272;8.052;2022-12-18T10:33:04;-3.90;99.90
40960;DHT22;27842;52.272;8.052;2022-12-18T10:35:30;-3.80;99.90
40960;DHT22;27842;52.272;8.052;2022-12-18T10:43:15;-3.80;99.90
40960;DHT22;27842;52.272;8.052;2022-12-18T10:45:41;-3.70;99.90
40960;DHT22;27842;52.272;8.052;2022-12-18T10:48:24;-3.70;99.90
40960;DHT22;27842;52.272;8.052;2022-12-18T10:50:51;-3.70;99.90
40960;DHT22;27842;52.272;8.052;2022-12-18T10:53:22;-3.70;99.90
40960;DHT22;27842;52.272;8.052;2022-12-18T10:55:49;-3.60;99.90
40960;DHT22;27842;52.272;8.052;2022-12-18T10:58:18;-3.60;99.90
40960;DHT22;27842;52.272;8.052;2022-12-18T11:01:05;-3.60;99.90
40960;DHT22;27842;52.272;8.052;2022-12-18T11:03:34;-3.50;99.90
40960;DHT22;27842;52.272;8.052;2022-12-18T11:06:06;-3.50;99.90
40960;DHT22;27842;52.272;8.052;2022-12-18T11:08:32;-3.40;99.90
40960;DHT22;27842;52.272;8.052;2022-12-18T11:10:58;-3.40;99.90
40960;DHT22;27842;52.272;8.052;2022-12-18T11:13:26;-3.40;99.90
40960;DHT22;27842;52.272;8.052;2022-12-18T11:15:52;-3.40;99.90
40960;DHT22;27842;52.272;8.052;2022-12-18T11:21:00;-3.30;99.90
40960;DHT22;27842;52.272;8.052;2022-12-18T11:23:27;-3.20;99.90
40960;DHT22;27842;52.272;8.052;2022-12-18T11:25:58;-3.20;99.90
40960;DHT22;27842;52.272;8.052;2022-12-18T11:28:34;-3.20;99.90
40960;DHT22;27842;52.272;8.052;2022-12-18T11:34:22;-3.20;99.90
40960;DHT22;27842;52.272;8.052;2022-12-18T11:36:55;-3.10;99.90
40960;DHT22;27842;52.272;8.052;2022-12-18T11:39:40;-3.10;99.90
40960;DHT22;27842;52.272;8.052;2022-12-18T11:42:27;-3.10;99.90
40960;DHT22;27842;52.272;8.052;2022-12-18T11:45:14;-3.00;99.90
40960;DHT22;27842;52.272;8.052;2022-12-18T11:50:45;-3.00;99.90
40960;DHT22;27842;52.272;8.052;2022-12-18T11:53:12;-2.90;99.90
40960;DHT22;27842;52.272;8.052;2022-12-18T11:55:56;-2.90;99.90
40960;DHT22;27842;52.272;8.052;2022-12-18T12:01:28;-2.90;99.90
40960;DHT22;27842;52.272;8.052;2022-12-18T12:04:37;-2.80;99.90
40960;DHT22;27842;52.272;8.052;2022-12-18T12:07:18;-2.80;99.90
40960;DHT22;27842;52.272;8.052;2022-12-18T12:18:17;-2.70;99.90
40960;DHT22;27842;52.272;8.052;2022-12-18T12:25:59;-2.60;99.90
40960;DHT22;27842;52.272;8.052;2022-12-18T12:29:00;-2.60;99.90
40960;DHT22;27842;52.272;8.052;2022-12-18T12:34:26;-2.50;99.90
40960;DHT22;27842;52.272;8.052;2022-12-18T12:39:41;-2.40;99.90
40960;DHT22;27842;52.272;8.052;2022-12-18T12:42:44;-2.40;99.90
40960;DHT22;27842;52.272;8.052;2022-12-18T12:45:55;-2.30;99.90
40960;DHT22;27842;52.272;8.052;2022-12-18T12:48:43;-2.30;99.90
40960;DHT22;27842;52.272;8.052;2022-12-18T12:53:52;-2.30;99.90
40960;DHT22;27842;52.272;8.052;2022-12-18T12:56:20;-2.20;99.90
40960;DHT22;27842;52.272;8.052;2022-12-18T12:59:02;-2.20;99.90
40960;DHT22;27842;52.272;8.052;2022-12-18T13:04:27;-2.20;99.90
40960;DHT22;27842;52.272;8.052;2022-12-18T13:07:19;-2.20;99.90
40960;DHT22;27842;52.272;8.052;2022-12-18T13:13:03;-2.10;99.90
40960;DHT22;27842;52.272;8.052;2022-12-18T13:20:35;-2.10;99.90
40960;DHT22;27842;52.272;8.052;2022-12-18T13:25:50;-2.00;99.90
40960;DHT22;27842;52.272;8.052;2022-12-18T13:28:20;-2.00;99.90
40960;DHT22;27842;52.272;8.052;2022-12-18T13:30:55;-2.00;99.90
40960;DHT22;27842;52.272;8.052;2022-12-18T13:33:37;-1.90;99.90
40960;DHT22;27842;52.272;8.052;2022-12-18T13:36:27;-1.90;99.90
40960;DHT22;27842;52.272;8.052;2022-12-18T13:41:42;-1.90;99.90
40960;DHT22;27842;52.272;8.052;2022-12-18T13:46:50;-1.90;99.90
40960;DHT22;27842;52.272;8.052;2022-12-18T13:51:54;-1.90;99.90
40960;DHT22;27842;52.272;8.052;2022-12-18T13:56:48;-1.80;99.90
40960;DHT22;27842;52.272;8.052;2022-12-18T13:59:33;-1.80;99.90
40960;DHT22;27842;52.272;8.052;2022-12-18T14:02:05;-1.80;99.90
40960;DHT22;27842;52.272;8.052;2022-12-18T14:04:34;-1.80;99.90
40960;DHT22;27842;52.272;8.052;2022-12-18T14:07:06;-1.80;99.90
40960;DHT22;27842;52.272;8.052;2022-12-18T14:09:40;-1.80;99.90
40960;DHT22;27842;52.272;8.052;2022-12-18T14:12:17;-1.80;99.90
40960;DHT22;27842;52.272;8.052;2022-12-18T14:15:03;-1.80;99.90
40960;DHT22;27842;52.272;8.052;2022-12-18T14:17:34;-1.80;99.90
40960;DHT22;27842;52.272;8.052;2022-12-18T14:20:01;-1.80;99.90
40960;DHT22;27842;52.272;8.052;2022-12-18T14:22:27;-1.80;99.90
40960;DHT22;27842;52.272;8.052;2022-12-18T14:25:30;-1.80;99.90
40960;DHT22;27842;52.272;8.052;2022-12-18T14:28:13;-1.70;99.90
40960;DHT22;27842;52.272;8.052;2022-12-18T14:30:44;-1.70;99.90
40960;DHT22;27842;52.272;8.052;2022-12-18T14:35:42;-1.70;99.90
40960;DHT22;27842;52.272;8.052;2022-12-18T14:41:03;-1.70;99.90
40960;DHT22;27842;52.272;8.052;2022-12-18T14:43:34;-1.70;99.90
40960;DHT22;27842;52.272;8.052;2022-12-18T14:46:01;-1.80;99.90
40960;DHT22;27842;52.272;8.052;2022-12-18T14:48:41;-1.70;99.90
40960;DHT22;27842;52.272;8.052;2022-12-18T14:53:40;-1.70;99.90
40960;DHT22;27842;52.272;8.052;2022-12-18T14:56:19;-1.70;99.90
40960;DHT22;27842;52.272;8.052;2022-12-18T14:59:15;-1.70;99.90
40960;DHT22;27842;52.272;8.052;2022-12-18T15:01:48;-1.70;99.90
40960;DHT22;27842;52.272;8.052;2022-12-18T15:04:36;-1.70;99.90
40960;DHT22;27842;52.272;8.052;2022-12-18T15:07:18;-1.70;99.90
40960;DHT22;27842;52.272;8.052;2022-12-18T15:12:39;-1.70;99.90
40960;DHT22;27842;52.272;8.052;2022-12-18T15:15:41;-1.70;99.90
40960;DHT22;27842;52.272;8.052;2022-12-18T15:18:00;-1.70;99.90
40960;DHT22;27842;52.272;8.052;2022-12-18T15:20:26;-1.60;99.90
40960;DHT22;27842;52.272;8.052;2022-12-18T15:22:55;-1.60;99.90
40960;DHT22;27842;52.272;8.052;2022-12-18T15:25:46;-1.60;99.90
40960;DHT22;27842;52.272;8.052;2022-12-18T15:28:49;-1.60;99.90
40960;DHT22;27842;52.272;8.052;2022-12-18T15:36:11;-1.60;99.90
40960;DHT22;27842;52.272;8.052;2022-12-18T15:38:40;-1.60;99.90
40960;DHT22;27842;52.272;8.052;2022-12-18T15:41:05;-1.60;99.90
40960;DHT22;27842;52.272;8.052;2022-12-18T15:43:31;-1.60;99.90
40960;DHT22;27842;52.272;8.052;2022-12-18T15:46:18;-1.60;99.90
40960;DHT22;27842;52.272;8.052;2022-12-18T15:48:50;-1.50;99.90
40960;DHT22;27842;52.272;8.052;2022-12-18T15:51:35;-1.50;99.90
40960;DHT22;27842;52.272;8.052;2022-12-18T15:54:05;-1.50;99.90
40960;DHT22;27842;52.272;8.052;2022-12-18T15:56:34;-1.50;99.90
40960;DHT22;27842;52.272;8.052;2022-12-18T15:59:22;-1.50;99.90
40960;DHT22;27842;52.272;8.052;2022-12-18T16:01:52;-1.50;99.90
40960;DHT22;27842;52.272;8.052;2022-12-18T16:04:22;-1.50;99.90
40960;DHT22;27842;52.272;8.052;2022-12-18T16:06:49;-1.50;99.90
40960;DHT22;27842;52.272;8.052;2022-12-18T16:09:14;-1.40;99.90
40960;DHT22;27842;52.272;8.052;2022-12-18T16:11:43;-1.40;99.90
40960;DHT22;27842;52.272;8.052;2022-12-18T16:14:29;-1.40;99.90
40960;DHT22;27842;52.272;8.052;2022-12-18T16:17:00;-1.40;99.90
40960;DHT22;27842;52.272;8.052;2022-12-18T16:19:27;-1.40;99.90
40960;DHT22;27842;52.272;8.052;2022-12-18T16:21:54;-1.40;99.90
40960;DHT22;27842;52.272;8.052;2022-12-18T16:24:33;-1.40;99.90
40960;DHT22;27842;52.272;8.052;2022-12-18T16:27:04;-1.30;99.90
40960;DHT22;27842;52.272;8.052;2022-12-18T16:29:30;-1.30;99.90
40960;DHT22;27842;52.272;8.052;2022-12-18T16:32:00;-1.30;99.90
40960;DHT22;27842;52.272;8.052;2022-12-18T16:34:30;-1.30;99.90
40960;DHT22;27842;52.272;8.052;2022-12-18T16:37:01;-1.30;99.90
40960;DHT22;27842;52.272;8.052;2022-12-18T16:39:28;-1.30;99.90
40960;DHT22;27842;52.272;8.052;2022-12-18T16:41:55;-1.30;99.90
40960;DHT22;27842;52.272;8.052;2022-12-18T16:44:21;-1.30;99.90
40960;DHT22;27842;52.272;8.052;2022-12-18T16:46:47;-1.30;99.90
40960;DHT22;27842;52.272;8.052;2022-12-18T16:49:15;-1.30;99.90
40960;DHT22;27842;52.272;8.052;2022-12-18T16:51:41;-1.20;99.90
40960;DHT22;27842;52.272;8.052;2022-12-18T16:54:07;-1.20;99.90
40960;DHT22;27842;52.272;8.052;2022-12-18T16:56:33;-1.20;99.90
40960;DHT22;27842;52.272;8.052;2022-12-18T16:59:00;-1.20;99.90
40960;DHT22;27842;52.272;8.052;2022-12-18T17:01:27;-1.10;99.90
40960;DHT22;27842;52.272;8.052;2022-12-18T17:04:01;-1.10;99.90
40960;DHT22;27842;52.272;8.052;2022-12-18T17:06:29;-1.10;99.90
40960;DHT22;27842;52.272;8.052;2022-12-18T17:09:00;-1.10;99.90
40960;DHT22;27842;52.272;8.052;2022-12-18T17:11:28;-1.10;99.90
40960;DHT22;27842;52.272;8.052;2022-12-18T17:13:54;-1.10;99.90
40960;DHT22;27842;52.272;8.052;2022-12-18T17:16:19;-1.10;99.90
40960;DHT22;27842;52.272;8.052;2022-12-18T17:18:45;-1.10;99.90
40960;DHT22;27842;52.272;8.052;2022-12-18T17:21:14;-1.00;99.90
40960;DHT22;27842;52.272;8.052;2022-12-18T17:23:41;-1.00;99.90
40960;DHT22;27842;52.272;8.052;2022-12-18T17:26:08;-1.00;99.90
40960;DHT22;27842;52.272;8.052;2022-12-18T17:28:36;-1.00;99.90
40960;DHT22;27842;52.272;8.052;2022-12-18T17:31:12;-1.00;99.90
40960;DHT22;27842;52.272;8.052;2022-12-18T17:33:38;-0.90;99.90
40960;DHT22;27842;52.272;8.052;2022-12-18T17:36:04;-0.90;99.90
40960;DHT22;27842;52.272;8.052;2022-12-18T17:38:30;-0.90;99.90
40960;DHT22;27842;52.272;8.052;2022-12-18T17:41:06;-0.90;99.90
40960;DHT22;27842;52.272;8.052;2022-12-18T17:43:35;-0.90;99.90
40960;DHT22;27842;52.272;8.052;2022-12-18T17:46:04;-0.90;99.90
40960;DHT22;27842;52.272;8.052;2022-12-18T17:48:31;-0.90;99.90
40960;DHT22;27842;52.272;8.052;2022-12-18T17:51:01;-0.80;99.90
40960;DHT22;27842;52.272;8.052;2022-12-18T17:53:28;-0.80;99.90
40960;DHT22;27842;52.272;8.052;2022-12-18T17:55:54;-0.70;99.90